Time;durP1;ratioP1;P1;durP2;ratioP2;P2;SDS_P1;SDS_P2;PMS_P1;PMS_P2;Temp;Humidity;BMP_temperature;BMP_pressure;BME280_temperature;BME280_humidity;BME280_pressure;Samples;Min_cycle;Max_cycle;Signal;HPM_P1;HPM_P2
2023/11/15 00:00:11;;;;;;;6.60;2.45;;;12.70;99.90;;;;;;6270261;22;20007;-74
2023/11/15 00:02:57;;;;;;;5.03;2.20;;;12.70;99.90;;;;;;6271051;22;20007;-74
2023/11/15 00:05:43;;;;;;;5.05;1.85;;;12.70;99.90;;;;;;6269814;22;20380;-74
2023/11/15 00:08:29;;;;;;;4.80;1.73;;;12.60;99.90;;;;;;6271388;22;20018;-75
2023/11/15 00:11:18;;;;;;;6.75;2.22;;;12.60;99.90;;;;;;6270579;22;20004;-74
2023/11/15 00:14:05;;;;;;;4.45;1.60;;;12.60;99.90;;;;;;6269522;22;20008;-75
2023/11/15 00:16:51;;;;;;;3.58;2.15;;;12.60;99.90;;;;;;6269596;22;20093;-75
2023/11/15 00:19:37;;;;;;;7.60;2.17;;;12.60;99.90;;;;;;6269708;22;20311;-74
2023/11/15 00:22:25;;;;;;;3.85;1.30;;;12.60;99.90;;;;;;6271283;22;20086;-75
2023/11/15 00:25:12;;;;;;;3.60;1.50;;;12.50;99.90;;;;;;6271363;22;20008;-75
2023/11/15 00:27:57;;;;;;;2.17;1.38;;;12.50;99.90;;;;;;6271602;22;20174;-74
2023/11/15 00:30:43;;;;;;;2.63;1.30;;;12.50;99.90;;;;;;6269908;22;20011;-74
2023/11/15 00:33:29;;;;;;;4.47;1.63;;;12.40;99.90;;;;;;6270819;22;20116;-75
2023/11/15 00:36:19;;;;;;;2.97;1.83;;;12.40;99.90;;;;;;6271068;22;20007;-73
2023/11/15 00:39:08;;;;;;;3.15;1.65;;;12.40;99.90;;;;;;6273290;22;20020;-74
2023/11/15 00:41:54;;;;;;;2.08;1.30;;;12.40;99.90;;;;;;6270200;22;20362;-75
2023/11/15 00:44:40;;;;;;;4.00;1.58;;;12.40;99.90;;;;;;6271221;22;20011;-76
2023/11/15 00:47:26;;;;;;;2.47;1.30;;;12.40;99.90;;;;;;6269795;22;20007;-76
2023/11/15 00:50:12;;;;;;;3.38;1.40;;;12.40;99.90;;;;;;6270433;22;20011;-76
2023/11/15 00:52:58;;;;;;;4.18;1.75;;;12.40;99.90;;;;;;6268824;22;20008;-77
2023/11/15 00:55:44;;;;;;;3.28;1.55;;;12.40;99.90;;;;;;6271102;22;20003;-77
2023/11/15 00:58:31;;;;;;;4.63;1.95;;;12.40;99.90;;;;;;6270689;22;20030;-77
2023/11/15 01:01:17;;;;;;;3.50;1.63;;;12.40;99.90;;;;;;6270394;22;20426;-78
2023/11/15 01:04:05;;;;;;;3.20;1.70;;;12.40;99.90;;;;;;6268932;22;20433;-76
2023/11/15 01:06:51;;;;;;;3.42;1.70;;;12.40;99.90;;;;;;6249534;22;20016;-76
2023/11/15 01:09:37;;;;;;;3.22;1.40;;;12.40;99.90;;;;;;6270769;22;20010;-77
2023/11/15 01:12:23;;;;;;;4.30;2.17;;;12.40;99.90;;;;;;6270787;22;20013;-76
2023/11/15 01:15:11;;;;;;;3.65;1.35;;;12.30;99.90;;;;;;6267637;22;20007;-79
2023/11/15 01:17:57;;;;;;;4.10;1.40;;;12.30;99.90;;;;;;6249539;22;20015;-79
2023/11/15 01:20:43;;;;;;;5.03;1.60;;;12.30;99.90;;;;;;6269832;22;20345;-78
2023/11/15 01:23:29;;;;;;;2.38;1.40;;;12.40;99.90;;;;;;6270279;22;20011;-78
2023/11/15 01:26:15;;;;;;;3.00;1.83;;;12.30;99.90;;;;;;6270404;22;20046;-74
2023/11/15 01:29:01;;;;;;;3.22;2.25;;;12.30;99.90;;;;;;6269670;22;20445;-75
2023/11/15 01:31:47;;;;;;;3.55;1.60;;;12.30;99.90;;;;;;6270241;22;20058;-74
2023/11/15 01:34:33;;;;;;;2.83;1.95;;;12.30;99.90;;;;;;6269736;22;20008;-75
2023/11/15 01:37:19;;;;;;;3.63;1.50;;;12.40;99.90;;;;;;6270001;22;20015;-75
2023/11/15 01:40:06;;;;;;;2.90;1.80;;;12.30;99.90;;;;;;6269534;22;20111;-75
2023/11/15 01:42:52;;;;;;;6.30;2.30;;;12.30;99.90;;;;;;6270573;22;20062;-74
2023/11/15 01:45:38;;;;;;;2.25;1.55;;;12.40;99.90;;;;;;6269857;22;20011;-74
2023/11/15 01:48:24;;;;;;;3.15;1.60;;;12.30;99.90;;;;;;6268793;22;20043;-73
2023/11/15 01:51:10;;;;;;;4.85;1.88;;;12.30;99.90;;;;;;6269844;22;20034;-74
2023/11/15 01:53:56;;;;;;;2.50;1.38;;;12.30;99.90;;;;;;6269981;22;20007;-73
2023/11/15 01:56:42;;;;;;;2.45;1.50;;;12.30;99.90;;;;;;6271561;22;20003;-75
2023/11/15 01:59:29;;;;;;;2.58;1.60;;;12.30;99.90;;;;;;6269728;22;20033;-75
2023/11/15 02:02:15;;;;;;;3.28;1.70;;;12.30;99.90;;;;;;6270319;22;20003;-74
2023/11/15 02:05:01;;;;;;;3.25;1.80;;;12.30;99.90;;;;;;6270148;22;20497;-73
2023/11/15 02:07:48;;;;;;;3.97;2.00;;;12.30;99.90;;;;;;6270082;22;20015;-74
2023/11/15 02:10:34;;;;;;;5.38;1.98;;;12.30;99.90;;;;;;6270155;22;20004;-73
2023/11/15 02:13:25;;;;;;;3.10;1.90;;;12.20;99.90;;;;;;6269645;22;20091;-74
2023/11/15 02:16:12;;;;;;;4.65;2.40;;;12.20;99.90;;;;;;6270870;22;20007;-73
2023/11/15 02:18:58;;;;;;;3.92;2.20;;;12.20;99.90;;;;;;6270980;22;20016;-77
2023/11/15 02:21:44;;;;;;;3.90;2.22;;;12.20;99.90;;;;;;6271663;22;20030;-78
2023/11/15 02:24:31;;;;;;;3.33;2.03;;;12.20;99.90;;;;;;6270712;22;20345;-77
2023/11/15 02:27:17;;;;;;;4.93;1.90;;;12.20;99.90;;;;;;6249876;22;20004;-76
2023/11/15 02:30:05;;;;;;;5.38;2.55;;;12.20;99.90;;;;;;6271879;22;20453;-76
2023/11/15 02:32:51;;;;;;;5.38;2.60;;;12.20;99.90;;;;;;6273051;22;20101;-77
2023/11/15 02:35:37;;;;;;;5.68;2.47;;;12.20;99.90;;;;;;6271640;22;20007;-78
2023/11/15 02:38:22;;;;;;;5.47;2.30;;;12.20;99.90;;;;;;6270748;22;20019;-77
2023/11/15 02:41:09;;;;;;;4.03;2.35;;;12.10;99.90;;;;;;6251203;22;20004;-75
2023/11/15 02:43:55;;;;;;;6.50;1.92;;;12.20;99.90;;;;;;6248566;22;20345;-76
2023/11/15 02:46:41;;;;;;;5.65;2.88;;;12.20;99.90;;;;;;6271859;22;20022;-76
2023/11/15 02:49:27;;;;;;;5.35;2.35;;;12.10;99.90;;;;;;6272531;22;20008;-75
2023/11/15 02:52:13;;;;;;;4.75;2.22;;;12.10;99.90;;;;;;6271628;22;20341;-75
2023/11/15 02:54:59;;;;;;;4.93;2.50;;;12.10;99.90;;;;;;6270294;22;20345;-75
2023/11/15 02:57:45;;;;;;;5.25;2.53;;;12.10;99.90;;;;;;6270596;22;20046;-74
2023/11/15 03:00:31;;;;;;;6.35;3.28;;;12.10;99.90;;;;;;6270317;22;20008;-74
2023/11/15 03:03:17;;;;;;;3.78;2.05;;;12.10;99.90;;;;;;6270926;22;20007;-73
2023/11/15 03:06:04;;;;;;;4.03;2.47;;;12.10;99.90;;;;;;6271047;22;20010;-74
2023/11/15 03:08:50;;;;;;;3.75;2.45;;;12.00;99.90;;;;;;6271608;22;20018;-74
2023/11/15 03:11:36;;;;;;;5.78;2.47;;;12.00;99.90;;;;;;6272146;22;20247;-75
2023/11/15 03:14:22;;;;;;;6.13;2.03;;;12.00;99.90;;;;;;6270899;22;20432;-75
2023/11/15 03:17:14;;;;;;;4.25;2.20;;;12.10;99.90;;;;;;6273108;22;20000;-73
2023/11/15 03:20:00;;;;;;;3.75;2.25;;;12.10;99.90;;;;;;6271277;22;20004;-73
2023/11/15 03:22:47;;;;;;;7.97;2.45;;;12.00;99.90;;;;;;6271071;22;20119;-74
2023/11/15 03:25:33;;;;;;;6.93;1.92;;;12.00;99.90;;;;;;6270647;22;20363;-75
2023/11/15 03:28:19;;;;;;;4.93;2.10;;;12.10;99.90;;;;;;6270604;22;20520;-73
2023/11/15 03:31:06;;;;;;;3.90;2.15;;;12.10;99.90;;;;;;6248965;22;20008;-74
2023/11/15 03:33:51;;;;;;;5.07;2.25;;;12.00;99.90;;;;;;6271501;22;20031;-74
2023/11/15 03:36:40;;;;;;;5.32;2.22;;;11.90;99.90;;;;;;6270287;22;20014;-71
2023/11/15 03:39:27;;;;;;;4.40;2.33;;;11.90;99.90;;;;;;6271630;22;20501;-72
2023/11/15 03:42:13;;;;;;;3.95;2.00;;;11.80;99.90;;;;;;6271506;22;20004;-73
2023/11/15 03:44:59;;;;;;;3.88;1.70;;;11.80;99.90;;;;;;6270775;22;20015;-73
2023/11/15 03:47:45;;;;;;;7.43;2.92;;;11.70;99.90;;;;;;6270376;22;20003;-73
2023/11/15 03:50:31;;;;;;;3.95;2.15;;;11.70;99.90;;;;;;6250659;22;20004;-73
2023/11/15 03:53:17;;;;;;;3.95;1.90;;;11.60;99.90;;;;;;6270120;22;20379;-71
2023/11/15 03:56:03;;;;;;;4.32;1.90;;;11.60;99.90;;;;;;6271773;22;20497;-73
2023/11/15 03:58:49;;;;;;;4.20;1.58;;;11.50;99.90;;;;;;6270986;22;20449;-72
2023/11/15 04:01:36;;;;;;;4.18;1.95;;;11.50;99.90;;;;;;6270763;22;20122;-72
2023/11/15 04:04:22;;;;;;;4.30;1.90;;;11.40;99.90;;;;;;6270974;22;20039;-72
2023/11/15 04:07:08;;;;;;;4.93;1.83;;;11.40;99.90;;;;;;6269663;22;20073;-72
2023/11/15 04:09:55;;;;;;;5.50;1.90;;;11.40;99.90;;;;;;6271152;22;20042;-71
2023/11/15 04:12:42;;;;;;;4.75;1.90;;;11.40;99.90;;;;;;6272425;22;20091;-72
2023/11/15 04:15:28;;;;;;;3.30;1.92;;;11.30;99.90;;;;;;6271730;22;20039;-71
2023/11/15 04:18:14;;;;;;;3.35;2.25;;;11.40;99.90;;;;;;6270436;22;20012;-73
2023/11/15 04:21:00;;;;;;;4.93;2.08;;;11.30;99.90;;;;;;6271121;22;20445;-72
2023/11/15 04:23:46;;;;;;;6.10;1.90;;;11.30;99.90;;;;;;6271262;22;20011;-70
2023/11/15 04:26:32;;;;;;;2.55;1.75;;;11.30;99.90;;;;;;6269932;22;20000;-71
2023/11/15 04:29:19;;;;;;;6.10;2.08;;;11.30;99.90;;;;;;6270953;22;20314;-72
2023/11/15 04:32:05;;;;;;;3.97;1.75;;;11.30;99.90;;;;;;6249598;22;20014;-72
2023/11/15 04:34:52;;;;;;;4.43;2.00;;;11.20;99.90;;;;;;6270660;22;20014;-73
2023/11/15 04:37:38;;;;;;;2.58;1.40;;;11.20;99.90;;;;;;6269247;22;20016;-73
2023/11/15 04:40:26;;;;;;;6.05;2.08;;;11.20;99.90;;;;;;6271257;22;20008;-72
2023/11/15 04:43:12;;;;;;;2.63;1.55;;;11.20;99.90;;;;;;6270092;22;20448;-74
2023/11/15 04:45:58;;;;;;;4.28;2.17;;;11.10;99.90;;;;;;6269643;22;20031;-74
2023/11/15 04:48:44;;;;;;;3.47;1.40;;;11.10;99.90;;;;;;6270490;22;20353;-74
2023/11/15 04:51:30;;;;;;;2.42;1.40;;;11.10;99.90;;;;;;6249728;22;20014;-72
2023/11/15 04:54:16;;;;;;;1.83;1.40;;;11.00;99.90;;;;;;6270265;22;20421;-70
2023/11/15 04:57:03;;;;;;;1.40;1.25;;;10.90;99.90;;;;;;6271304;22;20008;-72
2023/11/15 04:59:54;;;;;;;1.55;1.13;;;10.80;99.90;;;;;;6268970;22;20008;-71
2023/11/15 05:02:40;;;;;;;1.83;1.30;;;10.80;99.90;;;;;;6270582;22;20069;-70
2023/11/15 05:05:26;;;;;;;3.28;1.70;;;10.80;99.90;;;;;;6266273;22;20057;-70
2023/11/15 05:08:12;;;;;;;4.07;1.45;;;10.70;99.90;;;;;;6268491;22;20083;-70
2023/11/15 05:10:59;;;;;;;3.03;1.85;;;10.70;99.90;;;;;;6270477;22;20041;-70
2023/11/15 05:13:45;;;;;;;4.35;1.73;;;10.60;99.90;;;;;;6270190;22;20008;-69
2023/11/15 05:16:31;;;;;;;4.45;2.35;;;10.60;99.90;;;;;;6270342;22;20050;-70
2023/11/15 05:19:17;;;;;;;2.42;1.40;;;10.50;99.90;;;;;;6270317;22;20339;-70
2023/11/15 05:22:04;;;;;;;3.25;2.20;;;10.50;99.90;;;;;;6270027;22;20034;-71
2023/11/15 05:24:49;;;;;;;3.00;1.92;;;10.50;99.90;;;;;;6272519;22;20091;-70
2023/11/15 05:27:35;;;;;;;2.10;1.40;;;10.50;99.90;;;;;;6269543;22;20341;-71
2023/11/15 05:30:21;;;;;;;2.22;1.30;;;10.40;99.90;;;;;;6269942;22;20441;-71
2023/11/15 05:33:08;;;;;;;1.58;1.38;;;10.30;99.90;;;;;;6268915;22;20015;-72
2023/11/15 05:35:54;;;;;;;2.03;1.50;;;10.30;99.90;;;;;;6269831;22;20008;-71
2023/11/15 05:38:40;;;;;;;2.58;1.85;;;10.30;99.90;;;;;;6270610;22;20050;-71
2023/11/15 05:41:26;;;;;;;2.47;1.60;;;10.30;99.90;;;;;;6270833;22;20003;-72
2023/11/15 05:44:12;;;;;;;2.00;1.33;;;10.30;99.90;;;;;;6249789;22;20008;-72
2023/11/15 05:46:58;;;;;;;2.63;1.35;;;10.30;99.90;;;;;;6249366;22;20003;-72
2023/11/15 05:49:44;;;;;;;2.92;1.40;;;10.30;99.90;;;;;;6269991;22;20000;-71
2023/11/15 05:52:30;;;;;;;2.20;1.48;;;10.30;99.90;;;;;;6271053;22;20008;-72
2023/11/15 05:55:16;;;;;;;3.90;1.50;;;10.20;99.90;;;;;;6271423;22;20475;-72
2023/11/15 05:58:04;;;;;;;7.30;1.60;;;10.20;99.90;;;;;;6251763;22;20098;-71
2023/11/15 06:00:50;;;;;;;1.95;1.52;;;10.20;99.90;;;;;;6271206;22;20014;-70
2023/11/15 06:03:36;;;;;;;2.88;1.45;;;10.20;99.90;;;;;;6270552;22;20018;-72
2023/11/15 06:06:22;;;;;;;2.00;1.40;;;10.10;99.90;;;;;;6272507;22;20014;-71
2023/11/15 06:09:13;;;;;;;2.70;1.70;;;10.10;99.90;;;;;;6271891;22;20011;-71
2023/11/15 06:11:59;;;;;;;2.65;1.75;;;10.10;99.90;;;;;;6275529;22;20003;-72
2023/11/15 06:14:47;;;;;;;2.50;1.75;;;10.10;99.90;;;;;;6272140;22;20323;-73
2023/11/15 06:17:34;;;;;;;2.60;1.85;;;10.10;99.90;;;;;;6272673;22;20012;-70
2023/11/15 06:20:20;;;;;;;2.60;1.73;;;10.00;99.90;;;;;;6272620;22;20035;-71
2023/11/15 06:23:06;;;;;;;5.32;2.00;;;10.00;99.90;;;;;;6270727;22;20102;-73
2023/11/15 06:25:52;;;;;;;2.42;1.75;;;10.00;99.90;;;;;;6271345;22;20054;-73
2023/11/15 06:28:38;;;;;;;3.10;2.15;;;10.00;99.90;;;;;;6270960;22;20023;-73
2023/11/15 06:31:25;;;;;;;2.67;2.03;;;10.00;99.90;;;;;;6271482;22;20008;-72
2023/11/15 06:34:11;;;;;;;2.92;2.10;;;10.00;99.90;;;;;;6270777;22;20011;-74
2023/11/15 06:36:58;;;;;;;3.67;1.98;;;10.00;99.90;;;;;;6272092;22;20391;-72
2023/11/15 06:39:44;;;;;;;3.15;2.00;;;10.00;99.90;;;;;;6271979;22;20008;-72
2023/11/15 06:42:30;;;;;;;2.75;1.88;;;10.00;99.90;;;;;;6270911;22;20318;-71
2023/11/15 06:45:16;;;;;;;2.80;2.15;;;10.00;99.90;;;;;;6272813;22;20349;-70
2023/11/15 06:48:03;;;;;;;2.78;2.10;;;10.00;99.90;;;;;;6268663;22;20075;-70
2023/11/15 06:50:49;;;;;;;5.47;2.38;;;9.90;99.90;;;;;;6270560;22;20011;-70
2023/11/15 06:53:35;;;;;;;4.53;2.55;;;9.80;99.90;;;;;;6270812;22;20057;-70
2023/11/15 06:56:21;;;;;;;3.15;2.22;;;9.90;99.90;;;;;;6271912;22;20314;-70
2023/11/15 06:59:07;;;;;;;3.72;2.58;;;9.80;99.90;;;;;;6271610;22;20020;-70
2023/11/15 07:01:53;;;;;;;3.33;2.17;;;9.90;99.90;;;;;;6249489;22;20070;-72
2023/11/15 07:04:40;;;;;;;5.85;2.47;;;9.90;99.90;;;;;;6270263;22;20483;-71
2023/11/15 07:07:26;;;;;;;3.95;2.75;;;9.80;99.90;;;;;;6271897;22;19999;-69
2023/11/15 07:10:15;;;;;;;3.47;2.40;;;9.70;99.90;;;;;;6270442;22;20066;-71
2023/11/15 07:13:01;;;;;;;4.20;2.78;;;9.80;99.90;;;;;;6271937;22;20031;-70
2023/11/15 07:15:49;;;;;;;3.15;2.22;;;9.70;99.90;;;;;;6270471;22;20014;-72
2023/11/15 07:18:35;;;;;;;4.28;2.83;;;9.70;99.90;;;;;;6271247;22;20011;-72
2023/11/15 07:21:21;;;;;;;6.03;2.67;;;9.70;99.90;;;;;;6270654;22;20019;-71
2023/11/15 07:24:09;;;;;;;3.50;2.67;;;9.80;99.90;;;;;;6272545;22;20069;-71
2023/11/15 07:26:55;;;;;;;4.10;3.40;;;9.80;99.90;;;;;;6271472;22;20058;-73
2023/11/15 07:29:40;;;;;;;3.70;2.47;;;9.70;99.90;;;;;;6270718;22;20046;-69
2023/11/15 07:32:28;;;;;;;4.70;2.35;;;9.80;99.90;;;;;;6271130;22;20035;-71
2023/11/15 07:35:14;;;;;;;4.05;2.92;;;9.80;99.90;;;;;;6270735;22;20018;-72
2023/11/15 07:38:00;;;;;;;5.85;2.90;;;9.70;99.90;;;;;;6271999;22;20546;-75
2023/11/15 07:40:47;;;;;;;4.32;2.85;;;9.70;99.90;;;;;;6269033;22;20428;-68
2023/11/15 07:43:34;;;;;;;4.43;2.83;;;9.80;99.90;;;;;;6270678;22;20028;-66
2023/11/15 07:46:26;;;;;;;3.50;2.67;;;9.80;99.90;;;;;;6273559;22;20012;-67
2023/11/15 07:49:18;;;;;;;3.92;2.45;;;9.80;99.90;;;;;;6271340;22;20007;-72
2023/11/15 07:52:04;;;;;;;5.53;2.83;;;9.80;99.90;;;;;;6271823;22;20039;-69
2023/11/15 07:54:50;;;;;;;6.18;2.67;;;9.90;99.90;;;;;;6270277;22;20102;-68
2023/11/15 07:57:36;;;;;;;6.95;3.00;;;9.90;99.90;;;;;;6269425;22;20026;-68
2023/11/15 08:00:24;;;;;;;5.10;3.00;;;10.00;99.90;;;;;;6269823;22;20053;-70
2023/11/15 08:03:12;;;;;;;3.95;2.60;;;10.00;99.90;;;;;;6269398;22;20018;-69
2023/11/15 08:05:58;;;;;;;3.78;2.65;;;10.00;99.90;;;;;;6270389;22;19999;-64
2023/11/15 08:08:44;;;;;;;4.80;3.42;;;10.00;99.90;;;;;;6268499;22;20007;-68
2023/11/15 08:11:30;;;;;;;3.45;2.65;;;10.10;99.90;;;;;;6270022;22;20007;-68
2023/11/15 08:14:17;;;;;;;3.92;2.55;;;10.10;99.90;;;;;;6271242;22;20082;-67
2023/11/15 08:17:03;;;;;;;4.75;2.30;;;10.10;99.90;;;;;;6270393;22;20030;-68
2023/11/15 08:19:49;;;;;;;3.67;2.63;;;10.20;99.90;;;;;;6269896;22;20004;-68
2023/11/15 08:22:37;;;;;;;7.20;3.30;;;10.20;99.90;;;;;;6270495;22;20065;-68
2023/11/15 08:25:24;;;;;;;7.68;3.05;;;10.20;99.90;;;;;;6269586;22;20453;-68
2023/11/15 08:28:10;;;;;;;4.72;2.88;;;10.20;99.90;;;;;;6270978;22;20059;-69
2023/11/15 08:30:58;;;;;;;4.55;3.15;;;10.30;99.90;;;;;;6269400;22;20098;-70
2023/11/15 08:33:44;;;;;;;5.28;2.85;;;10.30;99.90;;;;;;6268729;22;20057;-70
2023/11/15 08:36:30;;;;;;;6.63;2.92;;;10.30;99.90;;;;;;6268712;22;20061;-70
2023/11/15 08:39:16;;;;;;;3.75;2.90;;;10.30;99.90;;;;;;6271120;22;20011;-69
2023/11/15 08:42:03;;;;;;;4.13;3.47;;;10.30;99.90;;;;;;6268542;22;20014;-71
2023/11/15 08:44:50;;;;;;;4.68;3.33;;;10.30;99.90;;;;;;6270818;22;20007;-69
2023/11/15 08:47:36;;;;;;;4.63;3.40;;;10.30;99.90;;;;;;6269471;22;20454;-68
2023/11/15 08:50:24;;;;;;;4.85;3.25;;;10.30;99.90;;;;;;6271125;22;20010;-68
2023/11/15 08:53:14;;;;;;;5.82;3.20;;;10.30;99.90;;;;;;6270467;22;20008;-70
2023/11/15 08:56:03;;;;;;;7.00;3.22;;;10.40;99.90;;;;;;6270516;22;20016;-69
2023/11/15 08:58:49;;;;;;;4.22;3.30;;;10.40;99.90;;;;;;6271261;22;20020;-70
2023/11/15 09:01:35;;;;;;;4.65;3.33;;;10.40;99.90;;;;;;6269115;22;20000;-70
2023/11/15 09:04:20;;;;;;;5.43;3.20;;;10.40;99.90;;;;;;6269505;22;20049;-71
2023/11/15 09:07:07;;;;;;;4.65;3.05;;;10.40;99.90;;;;;;6270866;22;20004;-69
2023/11/15 09:09:54;;;;;;;5.18;3.25;;;10.40;99.90;;;;;;6270951;22;20062;-70
2023/11/15 09:12:41;;;;;;;3.40;2.53;;;10.40;99.90;;;;;;6272606;22;20445;-69
2023/11/15 09:15:30;;;;;;;7.47;3.22;;;10.30;99.90;;;;;;6270753;22;20012;-70
2023/11/15 09:18:21;;;;;;;4.43;3.20;;;10.30;99.90;;;;;;6270695;22;20027;-69
2023/11/15 09:21:08;;;;;;;4.35;3.03;;;10.40;99.90;;;;;;6269378;22;20003;-69
2023/11/15 09:23:55;;;;;;;4.03;2.67;;;10.40;99.90;;;;;;6270452;22;20019;-73
2023/11/15 09:26:41;;;;;;;4.35;3.15;;;10.40;99.90;;;;;;6270503;22;20380;-74
2023/11/15 09:29:28;;;;;;;4.78;3.45;;;10.30;99.90;;;;;;6269321;22;20369;-71
2023/11/15 09:32:14;;;;;;;4.85;3.30;;;10.40;99.90;;;;;;6271013;22;20015;-74
2023/11/15 09:35:00;;;;;;;4.97;3.35;;;10.40;99.90;;;;;;6269358;22;20364;-72
2023/11/15 09:37:46;;;;;;;5.32;3.60;;;10.40;99.90;;;;;;6268115;22;20016;-72
2023/11/15 09:40:32;;;;;;;4.90;3.55;;;10.40;99.90;;;;;;6269668;22;20006;-72
2023/11/15 09:43:19;;;;;;;6.07;3.85;;;10.40;99.90;;;;;;6270074;22;20007;-72
2023/11/15 09:46:12;;;;;;;5.13;3.47;;;10.50;99.90;;;;;;6270712;22;20007;-72
2023/11/15 09:48:58;;;;;;;5.22;3.55;;;10.50;99.90;;;;;;6269980;22;20050;-73
2023/11/15 09:51:44;;;;;;;4.97;3.65;;;10.50;99.90;;;;;;6270428;22;20464;-71
2023/11/15 09:54:31;;;;;;;5.05;4.10;;;10.60;99.90;;;;;;6269594;22;20030;-73
2023/11/15 09:57:19;;;;;;;5.03;3.80;;;10.60;99.90;;;;;;6270102;22;20518;-74
2023/11/15 10:00:09;;;;;;;3.63;2.60;;;10.60;99.90;;;;;;6270833;22;20035;-74
2023/11/15 10:02:56;;;;;;;5.82;3.90;;;10.60;99.90;;;;;;6270906;22;20008;-72
2023/11/15 10:05:42;;;;;;;4.75;3.45;;;10.60;99.90;;;;;;6269008;22;20057;-72
2023/11/15 10:08:28;;;;;;;4.75;3.42;;;10.70;99.90;;;;;;6270479;22;20011;-72
2023/11/15 10:11:16;;;;;;;4.28;3.33;;;10.70;99.90;;;;;;6249243;22;20012;-72
2023/11/15 10:14:15;;;;;;;6.53;3.60;;;10.80;99.90;;;;;;6272364;22;20008;-73
2023/11/15 10:17:03;;;;;;;5.45;3.60;;;10.80;99.90;;;;;;6269735;22;20018;-73
2023/11/15 15:46:13;;;;;;;4.15;2.33;;;10.80;98.80;;;;;;6297070;22;20465;-67
2023/11/15 15:49:00;;;;;;;3.75;2.45;;;10.80;98.80;;;;;;6272663;22;20028;-70
2023/11/15 15:51:47;;;;;;;4.55;2.40;;;10.80;98.90;;;;;;6272726;22;20012;-66
2023/11/15 15:54:32;;;;;;;3.97;2.63;;;10.80;98.80;;;;;;6250303;22;20405;-67
2023/11/15 15:57:19;;;;;;;3.38;2.30;;;10.80;98.80;;;;;;6272809;22;20054;-70
2023/11/15 16:00:06;;;;;;;3.72;2.67;;;10.90;98.80;;;;;;6249698;22;20090;-69
2023/11/15 16:02:52;;;;;;;3.80;2.65;;;10.90;98.90;;;;;;6270232;22;20046;-70
2023/11/15 16:05:38;;;;;;;3.85;2.22;;;11.00;98.80;;;;;;6271347;22;20091;-68
2023/11/15 16:08:24;;;;;;;3.08;2.10;;;11.00;98.80;;;;;;6270932;22;20061;-69
2023/11/15 16:11:10;;;;;;;3.47;2.40;;;11.00;98.80;;;;;;6271115;22;20389;-69
2023/11/15 16:13:56;;;;;;;4.55;2.50;;;11.00;98.80;;;;;;6271423;22;20358;-69
2023/11/15 16:16:46;;;;;;;4.13;2.67;;;11.10;98.70;;;;;;6270842;22;20220;-69
2023/11/15 16:19:32;;;;;;;3.85;2.58;;;11.00;98.70;;;;;;6271495;22;20024;-69
2023/11/15 16:22:18;;;;;;;2.92;2.25;;;11.00;98.70;;;;;;6249526;22;20050;-69
2023/11/15 16:25:06;;;;;;;4.45;2.88;;;11.10;98.70;;;;;;6271744;22;20015;-69
2023/11/15 16:27:52;;;;;;;5.63;2.75;;;11.00;98.50;;;;;;6270301;22;19999;-68
2023/11/15 16:30:38;;;;;;;4.05;2.63;;;11.00;98.60;;;;;;6271137;22;20018;-69
2023/11/15 16:33:24;;;;;;;4.07;2.83;;;11.00;98.60;;;;;;6271519;22;20010;-69
2023/11/15 16:36:10;;;;;;;3.50;2.58;;;11.00;98.60;;;;;;6269093;22;20042;-69
2023/11/15 16:38:56;;;;;;;5.30;2.97;;;10.90;98.60;;;;;;6248408;22;20122;-69
2023/11/15 16:41:49;;;;;;;6.05;3.33;;;10.80;98.70;;;;;;6270883;22;20008;-69
2023/11/15 16:44:36;;;;;;;6.60;3.50;;;10.90;98.70;;;;;;6270371;22;20015;-69
2023/11/15 16:47:22;;;;;;;5.18;3.42;;;10.80;98.70;;;;;;6287320;22;20019;-69
2023/11/15 16:50:08;;;;;;;5.85;3.95;;;10.80;98.80;;;;;;6301788;22;20003;-68
2023/11/15 16:52:54;;;;;;;5.82;4.05;;;10.80;98.80;;;;;;6300326;22;20122;-69
2023/11/15 16:55:45;;;;;;;7.20;3.95;;;10.70;98.80;;;;;;6300514;22;20437;-69
2023/11/15 16:58:32;;;;;;;6.60;4.05;;;10.70;98.80;;;;;;6299329;22;20418;-69
2023/11/15 17:01:18;;;;;;;7.65;4.20;;;10.70;98.90;;;;;;6301154;22;20019;-69
2023/11/15 17:04:06;;;;;;;11.75;4.68;;;10.60;99.00;;;;;;6299579;22;20337;-69
2023/11/15 17:06:55;;;;;;;8.13;4.70;;;10.60;99.00;;;;;;6301793;22;20007;-69
2023/11/15 17:09:40;;;;;;;8.35;4.65;;;10.60;99.10;;;;;;6300336;22;20496;-69
2023/11/15 17:12:26;;;;;;;13.95;6.38;;;10.50;99.20;;;;;;6300079;22;20483;-69
2023/11/15 17:15:12;;;;;;;8.50;5.72;;;10.50;99.20;;;;;;6299907;22;20470;-69
2023/11/15 17:17:58;;;;;;;10.73;7.45;;;10.50;99.30;;;;;;6300468;22;20015;-69
2023/11/15 17:20:44;;;;;;;10.57;6.38;;;10.50;99.30;;;;;;6300394;22;20015;-69
2023/11/15 17:23:31;;;;;;;15.65;7.88;;;10.40;99.40;;;;;;6300960;22;20047;-69
2023/11/15 17:26:17;;;;;;;13.85;7.97;;;10.40;99.40;;;;;;6301388;22;20060;-68
2023/11/15 17:29:03;;;;;;;12.60;7.75;;;10.30;99.40;;;;;;6298362;22;20008;-70
2023/11/15 17:31:49;;;;;;;11.05;6.07;;;10.40;99.50;;;;;;6279117;22;20011;-66
2023/11/15 17:34:36;;;;;;;11.45;7.20;;;10.40;99.50;;;;;;6300207;22;20011;-69
2023/11/15 17:37:21;;;;;;;11.45;6.80;;;10.30;99.50;;;;;;6301131;22;20015;-67
2023/11/15 17:40:10;;;;;;;12.07;7.05;;;10.30;99.50;;;;;;6298378;22;20383;-69
2023/11/15 17:42:57;;;;;;;12.45;6.43;;;10.20;99.50;;;;;;6302710;22;20045;-72
2023/11/15 17:45:42;;;;;;;10.15;6.07;;;10.20;99.60;;;;;;6300514;22;20017;-64
2023/11/15 17:48:30;;;;;;;8.05;4.93;;;10.10;99.50;;;;;;6281790;22;20023;-68
2023/11/15 17:51:16;;;;;;;10.45;5.45;;;10.10;99.60;;;;;;6303457;22;20014;-67
2023/11/15 17:54:02;;;;;;;12.40;5.70;;;10.10;99.70;;;;;;6301664;22;20022;-68
2023/11/15 17:56:48;;;;;;;10.18;5.57;;;10.00;99.70;;;;;;6302798;22;20042;-68
2023/11/15 17:59:34;;;;;;;10.38;6.00;;;10.00;99.80;;;;;;6281132;22;20379;-68
2023/11/15 18:02:20;;;;;;;9.50;5.97;;;10.00;99.80;;;;;;6302822;22;20468;-68
2023/11/15 18:05:07;;;;;;;9.65;5.20;;;10.00;99.90;;;;;;6302667;22;20380;-68
2023/11/15 18:07:54;;;;;;;7.55;5.85;;;9.90;99.90;;;;;;6302942;22;20039;-68
2023/11/15 18:10:41;;;;;;;10.25;6.63;;;9.90;99.90;;;;;;6303023;22;20480;-68
2023/11/15 18:13:27;;;;;;;11.02;7.32;;;9.90;99.90;;;;;;6282012;22;20056;-68
2023/11/15 18:16:13;;;;;;;14.80;7.82;;;9.90;99.90;;;;;;6302863;22;20080;-68
2023/11/15 18:19:07;;;;;;;16.60;8.18;;;9.90;99.90;;;;;;6282585;22;20077;-69
2023/11/15 18:21:53;;;;;;;15.60;8.25;;;9.90;99.90;;;;;;6277243;22;20041;-67
2023/11/15 18:24:39;;;;;;;16.45;9.75;;;9.90;99.90;;;;;;6298656;22;20024;-67
2023/11/15 18:27:25;;;;;;;15.07;8.73;;;9.90;99.90;;;;;;6298248;22;20007;-67
2023/11/15 18:30:16;;;;;;;16.05;8.73;;;9.90;99.90;;;;;;6301081;22;20018;-67
2023/11/15 18:33:03;;;;;;;17.02;9.80;;;9.90;99.90;;;;;;6302566;22;20007;-68
2023/11/15 18:35:48;;;;;;;13.18;7.80;;;9.90;99.90;;;;;;6300602;22;20022;-67
2023/11/15 18:38:34;;;;;;;14.95;8.40;;;9.90;99.90;;;;;;6300944;22;20062;-67
2023/11/15 18:41:21;;;;;;;13.73;8.65;;;9.90;99.90;;;;;;6300235;22;20017;-67
2023/11/15 18:44:07;;;;;;;17.48;9.07;;;9.90;99.90;;;;;;6301854;22;20011;-67
2023/11/15 18:46:53;;;;;;;16.70;8.63;;;9.90;99.90;;;;;;6301630;22;20456;-68
2023/11/15 18:49:43;;;;;;;15.70;7.70;;;9.80;99.90;;;;;;6300724;22;20064;-67
2023/11/15 18:52:29;;;;;;;13.50;7.65;;;9.80;99.90;;;;;;6301128;22;20007;-68
2023/11/15 18:55:17;;;;;;;12.18;7.78;;;9.80;99.90;;;;;;6300997;22;20015;-67
2023/11/15 18:58:04;;;;;;;15.75;9.60;;;9.80;99.90;;;;;;6301089;22;20510;-68
2023/11/15 19:00:50;;;;;;;12.68;7.82;;;9.80;99.90;;;;;;6302326;22;20508;-67
2023/11/15 19:03:36;;;;;;;11.82;7.35;;;9.80;99.90;;;;;;6301592;22;20011;-64
2023/11/15 19:06:26;;;;;;;11.80;7.13;;;9.80;99.90;;;;;;6299076;22;20086;-68
2023/11/15 19:09:16;;;;;;;10.90;7.63;;;9.80;99.90;;;;;;6299616;22;20453;-68
2023/11/15 19:12:03;;;;;;;10.93;6.65;;;9.80;99.90;;;;;;6301671;22;20008;-67
2023/11/15 19:14:49;;;;;;;11.77;7.47;;;9.80;99.90;;;;;;6302049;22;20034;-67
2023/11/15 19:17:36;;;;;;;10.65;7.30;;;9.80;99.90;;;;;;6302190;22;20023;-67
2023/11/15 19:20:22;;;;;;;11.90;7.05;;;9.80;99.90;;;;;;6301605;22;20009;-67
2023/11/15 19:23:10;;;;;;;15.82;9.40;;;9.80;99.90;;;;;;6302240;22;20015;-67
2023/11/15 19:25:56;;;;;;;14.45;8.00;;;9.70;99.90;;;;;;6302012;22;20007;-69
2023/11/15 19:28:42;;;;;;;13.27;8.25;;;9.70;99.90;;;;;;6301323;22;20014;-66
2023/11/15 19:31:28;;;;;;;13.88;9.25;;;9.70;99.90;;;;;;6280653;22;20003;-66
2023/11/15 19:34:17;;;;;;;14.27;8.40;;;9.80;99.90;;;;;;6300395;22;20339;-67
2023/11/15 19:37:03;;;;;;;12.52;7.53;;;9.80;99.90;;;;;;6301911;22;20007;-67
2023/11/15 19:39:49;;;;;;;14.90;7.93;;;9.80;99.90;;;;;;6299627;22;20019;-68
2023/11/15 19:42:38;;;;;;;10.88;6.93;;;9.80;99.90;;;;;;6298449;22;20467;-68
2023/11/15 19:45:24;;;;;;;10.82;7.20;;;9.80;99.90;;;;;;6300410;22;20013;-68
2023/11/15 19:48:11;;;;;;;10.25;6.68;;;9.90;99.90;;;;;;6300986;22;20231;-68
2023/11/15 19:50:58;;;;;;;9.27;6.72;;;9.90;99.90;;;;;;6301678;22;20031;-68
2023/11/15 19:53:44;;;;;;;10.73;6.20;;;9.90;99.90;;;;;;6280373;22;20004;-68